Time;durP1;ratioP1;P1;durP2;ratioP2;P2;SDS_P1;SDS_P2;PMS_P1;PMS_P2;Temp;Humidity;BMP_temperature;BMP_pressure;BME280_temperature;BME280_humidity;BME280_pressure;Samples;Min_cycle;Max_cycle;Signal;HPM_P1;HPM_P2
2022/12/13 00:01:15;;;;;;;49.05;23.33;;;2.20;53.90;;;;;;5040486;28;20053;-48
2022/12/13 00:03:42;;;;;;;50.90;24.35;;;2.20;53.90;;;;;;5045661;28;20064;-52
2022/12/13 00:06:12;;;;;;;45.55;22.52;;;2.10;53.90;;;;;;5041778;28;20508;-52
2022/12/13 00:08:40;;;;;;;44.83;21.20;;;2.10;53.90;;;;;;5045532;28;20057;-52
2022/12/13 00:11:11;;;;;;;51.53;24.33;;;2.10;53.90;;;;;;5041002;28;20053;-53
2022/12/13 00:13:39;;;;;;;48.92;22.42;;;2.10;53.90;;;;;;5043861;28;20432;-52
2022/12/13 00:16:09;;;;;;;43.53;21.65;;;2.10;53.90;;;;;;5040994;28;20045;-54
2022/12/13 00:18:37;;;;;;;48.88;22.85;;;2.00;54.30;;;;;;5045373;28;20408;-53
2022/12/13 00:21:05;;;;;;;47.75;22.27;;;2.00;53.80;;;;;;5039155;28;20052;-51
2022/12/13 00:23:34;;;;;;;48.95;22.65;;;2.00;53.80;;;;;;5042410;28;20053;-54
2022/12/13 00:26:04;;;;;;;45.25;22.27;;;2.00;53.80;;;;;;5042827;28;20060;-53
2022/12/13 00:28:31;;;;;;;50.40;24.08;;;2.00;53.90;;;;;;5039726;28;20046;-53
2022/12/13 00:30:58;;;;;;;48.47;22.40;;;1.90;53.80;;;;;;5041377;28;20416;-50
2022/12/13 00:33:26;;;;;;;59.63;26.55;;;1.90;53.80;;;;;;5041805;28;20053;-48
2022/12/13 00:35:53;;;;;;;57.55;26.23;;;1.90;53.80;;;;;;5041731;28;20757;-54
2022/12/13 00:38:21;;;;;;;59.60;26.35;;;1.90;53.80;;;;;;5043960;28;20060;-52
2022/12/13 00:40:50;;;;;;;49.70;22.42;;;1.80;53.80;;;;;;5043318;28;20060;-52
2022/12/13 00:43:17;;;;;;;53.17;22.90;;;1.80;53.80;;;;;;5044263;28;20048;-52
2022/12/13 00:45:45;;;;;;;60.33;25.50;;;1.80;53.90;;;;;;5043681;28;20059;-54
2022/12/13 00:48:12;;;;;;;50.47;23.20;;;1.80;53.90;;;;;;5043741;28;20060;-50
2022/12/13 00:50:39;;;;;;;51.65;24.10;;;1.80;54.00;;;;;;5039141;28;20053;-49
2022/12/13 00:53:06;;;;;;;52.55;23.75;;;1.80;54.00;;;;;;5043672;28;20595;-53
2022/12/13 00:55:34;;;;;;;53.72;24.73;;;1.70;54.10;;;;;;5043164;28;20057;-51
2022/12/13 00:58:02;;;;;;;61.13;25.90;;;1.70;54.10;;;;;;5042299;28;20056;-53
2022/12/13 01:00:30;;;;;;;53.25;24.75;;;1.70;54.10;;;;;;5042271;28;20049;-52
2022/12/13 01:02:57;;;;;;;54.55;25.05;;;1.70;54.10;;;;;;5043800;28;20057;-52
2022/12/13 01:05:24;;;;;;;50.15;23.15;;;1.70;54.20;;;;;;5042848;28;20052;-50
2022/12/13 01:07:51;;;;;;;48.80;23.45;;;1.70;54.20;;;;;;5041352;28;20512;-50
2022/12/13 01:10:19;;;;;;;52.75;23.30;;;1.70;54.20;;;;;;5041776;28;20504;-52
2022/12/13 01:12:46;;;;;;;49.95;23.25;;;1.70;54.20;;;;;;5040087;28;20064;-52
2022/12/13 01:15:14;;;;;;;54.03;24.25;;;1.70;54.20;;;;;;5042639;28;20060;-52
2022/12/13 01:17:41;;;;;;;46.63;22.40;;;1.70;54.20;;;;;;5043350;28;20049;-52
2022/12/13 01:20:10;;;;;;;51.53;23.25;;;1.70;54.70;;;;;;5041071;28;20060;-49
2022/12/13 01:22:38;;;;;;;53.80;25.33;;;1.70;54.20;;;;;;5037351;28;21416;-51
2022/12/13 01:25:06;;;;;;;54.28;24.65;;;1.70;54.20;;;;;;5042818;28;20053;-51
2022/12/13 01:27:33;;;;;;;54.70;24.42;;;1.70;54.00;;;;;;5043892;28;20060;-53
2022/12/13 01:30:00;;;;;;;48.80;24.00;;;1.60;54.00;;;;;;5041514;28;20377;-51
2022/12/13 01:32:28;;;;;;;51.97;23.70;;;1.60;54.00;;;;;;5038673;28;20063;-52
2022/12/13 01:34:56;;;;;;;48.55;22.88;;;1.60;54.00;;;;;;5042836;28;20048;-52
2022/12/13 01:37:23;;;;;;;55.60;25.17;;;1.60;54.00;;;;;;5037212;28;20481;-51
2022/12/13 01:39:50;;;;;;;48.35;22.15;;;1.60;54.00;;;;;;5042074;28;20060;-48
2022/12/13 01:42:17;;;;;;;50.10;23.13;;;1.60;53.80;;;;;;5042460;28;20056;-49
2022/12/13 01:45:06;;;;;;;45.28;21.55;;;1.60;53.80;;;;;;5042561;28;20049;-52
2022/12/13 01:47:40;;;;;;;45.35;21.60;;;1.50;54.30;;;;;;5041425;28;20603;-54
2022/12/13 01:50:11;;;;;;;52.45;22.98;;;1.50;53.80;;;;;;5041530;28;20053;-50
2022/12/13 01:52:42;;;;;;;54.15;24.45;;;1.50;53.80;;;;;;5035647;28;20535;-52
2022/12/13 01:55:10;;;;;;;52.72;24.92;;;1.50;53.80;;;;;;5039900;28;20502;-51
2022/12/13 01:57:41;;;;;;;52.92;25.15;;;1.50;53.80;;;;;;5043804;28;20057;-48
2022/12/13 02:00:14;;;;;;;57.25;24.27;;;1.50;53.80;;;;;;5040773;28;20049;-47
2022/12/13 02:02:43;;;;;;;53.65;24.10;;;1.40;53.80;;;;;;5042200;28;20053;-50
2022/12/13 02:05:15;;;;;;;63.72;28.05;;;1.40;53.90;;;;;;5039745;28;20060;-52
2022/12/13 02:07:44;;;;;;;59.20;25.60;;;1.40;53.90;;;;;;5042563;28;20060;-52
2022/12/13 02:10:11;;;;;;;62.13;26.98;;;1.40;53.80;;;;;;5040032;28;20045;-52
2022/12/13 02:12:41;;;;;;;57.78;25.33;;;1.40;53.80;;;;;;5042240;28;20057;-54
2022/12/13 02:15:12;;;;;;;59.20;27.17;;;1.40;53.90;;;;;;5042183;28;20064;-53
2022/12/13 02:17:56;;;;;;;57.40;25.45;;;1.40;53.90;;;;;;5042559;28;20059;-53
2022/12/13 02:21:03;;;;;;;58.97;24.92;;;1.40;53.80;;;;;;5037992;28;20507;-51
2022/12/13 02:23:53;;;;;;;59.40;26.42;;;1.30;53.80;;;;;;5012325;28;20523;-50
2022/12/13 02:26:55;;;;;;;59.75;26.38;;;1.30;53.80;;;;;;5040931;28;20068;-50
2022/12/13 02:30:13;;;;;;;68.55;29.15;;;1.30;53.80;;;;;;5002800;28;20049;-52
2022/12/13 02:33:09;;;;;;;66.20;27.55;;;1.30;53.90;;;;;;5018607;28;20057;-49
2022/12/13 02:35:42;;;;;;;60.60;26.80;;;1.20;54.00;;;;;;5019310;28;20058;-50
2022/12/13 02:38:14;;;;;;;67.72;27.98;;;1.20;54.00;;;;;;5037888;28;20505;-53
2022/12/13 02:40:46;;;;;;;59.72;25.65;;;1.10;54.10;;;;;;5039934;28;20049;-47
2022/12/13 02:43:18;;;;;;;61.20;27.25;;;1.10;54.20;;;;;;5040877;28;20579;-55
2022/12/13 02:45:47;;;;;;;53.85;24.80;;;1.10;54.40;;;;;;5041727;28;20060;-54
2022/12/13 02:48:22;;;;;;;57.20;24.48;;;1.10;54.50;;;;;;5042347;28;20064;-53
2022/12/13 02:50:51;;;;;;;55.13;26.08;;;1.10;54.60;;;;;;5037237;28;20048;-53
2022/12/13 02:53:20;;;;;;;66.93;28.05;;;1.10;54.70;;;;;;5040473;28;20049;-50
2022/12/13 02:55:47;;;;;;;58.60;26.85;;;1.00;54.70;;;;;;5042457;28;20061;-53
2022/12/13 02:58:17;;;;;;;56.00;25.67;;;1.10;54.90;;;;;;5042263;28;20052;-51
2022/12/13 03:00:55;;;;;;;52.45;23.90;;;1.10;54.90;;;;;;5040625;28;20477;-52
2022/12/13 03:03:33;;;;;;;59.42;27.10;;;1.10;55.00;;;;;;5040530;28;20049;-52
2022/12/13 03:06:30;;;;;;;51.75;24.17;;;1.10;55.00;;;;;;5038638;28;20053;-53
2022/12/13 03:09:08;;;;;;;55.78;24.42;;;1.10;55.00;;;;;;5040520;28;20057;-49
2022/12/13 03:14:45;;;;;;;53.13;23.23;;;1.20;55.10;;;;;;5047233;28;20409;-47
2022/12/13 03:17:16;;;;;;;51.17;23.27;;;1.20;55.10;;;;;;5037294;28;20060;-51
2022/12/13 03:19:44;;;;;;;55.47;24.52;;;1.20;55.10;;;;;;5033823;28;20057;-54
2022/12/13 03:22:12;;;;;;;49.10;22.00;;;1.20;55.10;;;;;;5036415;28;20077;-45
2022/12/13 03:24:39;;;;;;;51.78;23.13;;;1.20;55.10;;;;;;5041325;28;20057;-45
2022/12/13 03:27:06;;;;;;;52.97;24.20;;;1.20;55.10;;;;;;5040646;28;20060;-45
2022/12/13 03:29:33;;;;;;;51.55;23.45;;;1.20;55.10;;;;;;5038061;28;20045;-45
2022/12/13 03:32:01;;;;;;;52.08;23.30;;;1.30;55.10;;;;;;5036322;28;20060;-45
2022/12/13 03:34:28;;;;;;;45.92;21.85;;;1.30;55.10;;;;;;5038328;28;20049;-47
2022/12/13 03:36:56;;;;;;;46.15;20.63;;;1.30;55.20;;;;;;5041910;28;20056;-46
2022/12/13 03:39:24;;;;;;;42.85;20.05;;;1.30;55.10;;;;;;5040961;28;20060;-48
2022/12/13 03:41:52;;;;;;;45.13;20.50;;;1.30;55.20;;;;;;5041590;28;20072;-47
2022/12/13 03:44:19;;;;;;;47.22;21.88;;;1.40;55.20;;;;;;5045928;28;20408;-49
2022/12/13 03:46:47;;;;;;;44.42;20.85;;;1.40;55.30;;;;;;5045994;28;20528;-47
2022/12/13 03:49:14;;;;;;;54.15;22.50;;;1.40;55.30;;;;;;5045587;28;20057;-47
2022/12/13 03:51:41;;;;;;;43.97;20.30;;;1.40;55.30;;;;;;5044587;28;20064;-47
2022/12/13 03:54:10;;;;;;;43.88;19.67;;;1.40;55.30;;;;;;5044573;28;20057;-46
2022/12/13 03:56:37;;;;;;;42.70;20.05;;;1.40;55.30;;;;;;5043231;28;20057;-44
2022/12/13 03:59:04;;;;;;;43.35;19.33;;;1.50;55.30;;;;;;5044593;28;20056;-47
2022/12/13 04:01:31;;;;;;;64.32;25.42;;;1.50;55.30;;;;;;5042857;28;20075;-44
2022/12/13 04:03:59;;;;;;;132.43;52.15;;;1.50;55.30;;;;;;5043334;28;20543;-48
2022/12/13 04:06:26;;;;;;;68.70;28.25;;;1.50;55.30;;;;;;5044017;28;20053;-43
2022/12/13 04:08:53;;;;;;;47.53;20.95;;;1.50;55.40;;;;;;5044200;28;20076;-44
2022/12/13 04:14:06;;;;;;;42.33;19.15;;;1.50;55.30;;;;;;5051366;28;20060;-48
2022/12/13 04:16:33;;;;;;;42.65;19.15;;;1.60;55.30;;;;;;5045230;28;20084;-46
2022/12/13 04:19:01;;;;;;;39.97;18.38;;;1.60;55.30;;;;;;5043937;28;20052;-45
2022/12/13 04:21:28;;;;;;;41.08;19.33;;;1.60;55.30;;;;;;5041119;28;20072;-45
2022/12/13 04:23:55;;;;;;;43.00;20.33;;;1.60;55.30;;;;;;5044661;28;20496;-46
2022/12/13 04:26:24;;;;;;;41.83;19.52;;;1.60;55.30;;;;;;5042756;28;20150;-45
2022/12/13 04:28:51;;;;;;;45.35;21.35;;;1.70;55.30;;;;;;5045226;28;20492;-48
2022/12/13 04:31:18;;;;;;;44.05;21.48;;;1.70;55.20;;;;;;5043261;28;20045;-45
2022/12/13 04:33:46;;;;;;;43.97;21.05;;;1.70;55.20;;;;;;5045586;28;20057;-44
2022/12/13 04:36:18;;;;;;;43.80;20.10;;;1.70;55.10;;;;;;5043495;28;20052;-44
2022/12/13 04:38:45;;;;;;;46.78;20.83;;;1.70;55.10;;;;;;5043869;28;20072;-44
2022/12/13 04:41:15;;;;;;;48.45;21.02;;;1.70;55.10;;;;;;5041215;28;20523;-46
2022/12/13 04:43:45;;;;;;;48.58;21.63;;;1.70;55.10;;;;;;5041278;28;20048;-45
2022/12/13 04:46:12;;;;;;;46.97;21.48;;;1.70;54.90;;;;;;5041266;28;20502;-49
2022/12/13 04:48:39;;;;;;;48.90;22.60;;;1.70;54.90;;;;;;5041743;28;20060;-49
2022/12/13 04:51:07;;;;;;;48.08;22.40;;;1.70;54.80;;;;;;5043471;28;20386;-46
2022/12/13 04:53:34;;;;;;;47.55;21.33;;;1.70;54.80;;;;;;5043517;28;20053;-46
2022/12/13 04:56:03;;;;;;;45.78;21.13;;;1.70;54.70;;;;;;5042515;28;20501;-47
2022/12/13 04:58:30;;;;;;;44.63;20.92;;;1.70;54.70;;;;;;5044483;28;20057;-49
2022/12/13 05:00:59;;;;;;;45.35;21.27;;;1.70;54.70;;;;;;5041190;28;20056;-45
2022/12/13 05:03:27;;;;;;;43.72;19.70;;;1.70;54.70;;;;;;5043073;28;20385;-45
2022/12/13 05:05:54;;;;;;;44.78;19.88;;;1.70;54.70;;;;;;5042467;28;20059;-48
2022/12/13 05:08:21;;;;;;;41.38;20.08;;;1.70;54.70;;;;;;5044683;28;20049;-45
2022/12/13 05:10:49;;;;;;;45.92;21.52;;;1.70;54.80;;;;;;5041383;28;20497;-44
2022/12/13 05:13:16;;;;;;;41.33;19.40;;;1.70;54.70;;;;;;5044167;28;20056;-47
2022/12/13 05:15:43;;;;;;;43.90;20.67;;;1.70;54.70;;;;;;5041551;28;20493;-45
2022/12/13 05:18:12;;;;;;;48.50;21.92;;;1.70;54.70;;;;;;5039558;28;20064;-44
2022/12/13 05:20:39;;;;;;;48.05;21.85;;;1.70;54.70;;;;;;5042887;28;20060;-43
2022/12/13 05:23:06;;;;;;;52.40;23.00;;;1.70;54.60;;;;;;5041206;28;20053;-48
2022/12/13 05:25:35;;;;;;;50.03;22.55;;;1.70;54.60;;;;;;5039087;28;20495;-46
2022/12/13 05:28:02;;;;;;;49.38;23.02;;;1.70;54.50;;;;;;5044098;28;20064;-46
2022/12/13 05:30:30;;;;;;;46.75;21.50;;;1.60;54.40;;;;;;5042684;28;20060;-47
2022/12/13 05:32:57;;;;;;;51.60;22.65;;;1.60;54.40;;;;;;5041400;28;20519;-48
2022/12/13 05:35:25;;;;;;;45.97;21.02;;;1.60;54.40;;;;;;5042805;28;20060;-48
2022/12/13 05:37:53;;;;;;;42.65;20.50;;;1.60;54.40;;;;;;5041159;28;20489;-44
2022/12/13 05:40:20;;;;;;;45.67;21.05;;;1.60;54.40;;;;;;5040228;28;20045;-47
2022/12/13 05:42:47;;;;;;;47.75;22.25;;;1.60;54.40;;;;;;5042923;28;20057;-46
2022/12/13 05:45:17;;;;;;;45.55;20.95;;;1.60;54.40;;;;;;5043162;28;20067;-47
2022/12/13 05:47:44;;;;;;;45.45;20.70;;;1.60;54.40;;;;;;5042261;28;20064;-45
2022/12/13 05:50:12;;;;;;;44.78;21.55;;;1.60;54.50;;;;;;5042082;28;20068;-44
2022/12/13 05:52:40;;;;;;;42.10;19.48;;;1.60;54.50;;;;;;5041385;28;20053;-47
2022/12/13 05:55:08;;;;;;;45.60;20.88;;;1.60;54.60;;;;;;5040874;28;20070;-46
2022/12/13 05:57:36;;;;;;;41.65;20.23;;;1.60;54.60;;;;;;5043200;28;20053;-48
2022/12/13 06:00:05;;;;;;;42.63;19.92;;;1.60;54.60;;;;;;5043332;28;20057;-47
2022/12/13 06:02:36;;;;;;;45.35;20.33;;;1.60;54.60;;;;;;5042830;28;20073;-45
2022/12/13 06:05:04;;;;;;;42.13;19.58;;;1.60;54.50;;;;;;5039229;28;20069;-46
2022/12/13 06:07:31;;;;;;;40.67;19.30;;;1.60;54.60;;;;;;5041255;28;20060;-45
2022/12/13 06:10:00;;;;;;;44.10;20.17;;;1.60;54.60;;;;;;5041209;28;20053;-45
2022/12/13 06:12:27;;;;;;;43.30;19.80;;;1.70;54.60;;;;;;5042966;28;20056;-44
2022/12/13 06:14:54;;;;;;;44.33;19.60;;;1.60;54.60;;;;;;5040337;28;20060;-44
2022/12/13 06:17:23;;;;;;;42.97;20.65;;;1.70;54.60;;;;;;5042871;28;20111;-44
2022/12/13 06:19:50;;;;;;;42.67;18.58;;;1.70;54.60;;;;;;5041954;28;20057;-48
2022/12/13 06:22:18;;;;;;;40.25;19.13;;;1.70;54.60;;;;;;5038725;28;20515;-47
2022/12/13 06:24:45;;;;;;;38.20;18.75;;;1.70;54.60;;;;;;5039554;28;20513;-45
2022/12/13 06:27:14;;;;;;;42.97;19.20;;;1.70;54.60;;;;;;5040101;28;20060;-47
2022/12/13 06:29:41;;;;;;;43.00;19.23;;;1.60;54.50;;;;;;5040020;28;20056;-44
2022/12/13 06:32:09;;;;;;;39.28;17.73;;;1.60;54.50;;;;;;5042822;28;20061;-47
2022/12/13 06:34:37;;;;;;;37.22;16.77;;;1.60;54.50;;;;;;5043398;28;20354;-44
2022/12/13 06:37:06;;;;;;;43.05;18.27;;;1.60;54.40;;;;;;5042712;28;20527;-47
2022/12/13 06:39:34;;;;;;;35.08;16.45;;;1.60;54.40;;;;;;5042284;28;20057;-45
2022/12/13 06:42:04;;;;;;;35.25;17.15;;;1.60;54.40;;;;;;5042057;28;20049;-49
2022/12/13 06:44:33;;;;;;;35.67;16.27;;;1.60;54.40;;;;;;5043215;28;20431;-47
2022/12/13 06:47:01;;;;;;;41.47;18.00;;;1.50;54.70;;;;;;5043424;28;20076;-44
2022/12/13 06:49:28;;;;;;;36.72;16.90;;;1.60;54.40;;;;;;5042938;28;20061;-44
2022/12/13 06:51:56;;;;;;;35.63;16.08;;;1.50;54.40;;;;;;5038945;28;20057;-44
2022/12/13 06:54:23;;;;;;;41.22;17.50;;;1.50;54.40;;;;;;5041211;28;20056;-49
2022/12/13 06:56:50;;;;;;;36.13;16.10;;;1.50;54.40;;;;;;5041811;28;20053;-46
2022/12/13 06:59:17;;;;;;;44.83;17.48;;;1.50;54.90;;;;;;5042998;28;20066;-46
2022/12/13 07:01:46;;;;;;;38.67;17.35;;;1.50;54.50;;;;;;5034597;28;20493;-47
2022/12/13 07:04:13;;;;;;;36.38;16.25;;;1.50;54.50;;;;;;5043367;28;20416;-48
2022/12/13 07:06:41;;;;;;;38.72;18.25;;;1.50;54.50;;;;;;5038355;28;20060;-42
2022/12/13 07:09:08;;;;;;;35.55;17.02;;;1.50;54.50;;;;;;5041788;28;21089;-41
2022/12/13 07:11:35;;;;;;;33.08;15.68;;;1.50;54.40;;;;;;5042496;28;20049;-45
2022/12/13 07:14:02;;;;;;;35.47;15.65;;;1.50;54.40;;;;;;5046686;28;20057;-44
2022/12/13 07:16:30;;;;;;;35.75;16.27;;;1.50;54.40;;;;;;5046286;28;20053;-45
2022/12/13 07:19:00;;;;;;;34.35;16.73;;;1.50;54.40;;;;;;5046574;28;20067;-48
2022/12/13 07:21:28;;;;;;;33.42;16.02;;;1.50;54.40;;;;;;5043846;28;20063;-43
2022/12/13 07:23:55;;;;;;;73.32;29.00;;;1.50;54.40;;;;;;5043713;28;20063;-47
2022/12/13 07:26:23;;;;;;;61.83;25.08;;;1.50;54.40;;;;;;5045484;28;20056;-47
2022/12/13 07:28:50;;;;;;;41.40;18.38;;;1.50;54.30;;;;;;5045305;28;20056;-46
2022/12/13 07:31:18;;;;;;;40.22;18.27;;;1.40;54.20;;;;;;5041381;28;20045;-46
2022/12/13 07:33:45;;;;;;;33.17;15.65;;;1.40;54.20;;;;;;5046497;28;20441;-44
2022/12/13 07:36:15;;;;;;;36.10;16.50;;;1.40;54.20;;;;;;5043690;28;20057;-47
2022/12/13 07:38:43;;;;;;;35.28;16.65;;;1.40;54.20;;;;;;5046355;28;20511;-48
2022/12/13 07:41:10;;;;;;;31.92;15.52;;;1.40;54.30;;;;;;5043610;28;20056;-44
2022/12/13 07:43:37;;;;;;;33.67;15.63;;;1.40;54.20;;;;;;5046334;28;20539;-46
2022/12/13 07:46:07;;;;;;;38.97;17.20;;;1.40;54.20;;;;;;5046056;28;20057;-47
2022/12/13 07:48:34;;;;;;;34.03;15.38;;;1.40;54.20;;;;;;5043649;28;20053;-45
2022/12/13 07:51:03;;;;;;;36.80;16.67;;;1.40;54.20;;;;;;5042394;28;20063;-44
2022/12/13 07:53:33;;;;;;;39.47;16.70;;;1.40;54.10;;;;;;5044066;28;20060;-45
2022/12/13 07:56:02;;;;;;;35.28;16.58;;;1.40;54.10;;;;;;5045440;28;20059;-48
2022/12/13 07:58:30;;;;;;;34.53;16.58;;;1.40;54.10;;;;;;5046292;28;20064;-46
2022/12/13 08:01:00;;;;;;;33.78;15.98;;;1.40;54.10;;;;;;5042802;28;20053;-48
2022/12/13 08:03:27;;;;;;;37.70;16.90;;;1.40;54.00;;;;;;5045563;28;20064;-47
2022/12/13 08:06:01;;;;;;;35.67;17.30;;;1.40;54.00;;;;;;5040790;28;20060;-47
2022/12/13 08:08:29;;;;;;;36.92;16.23;;;1.40;54.00;;;;;;5045042;28;20073;-44
2022/12/13 08:11:00;;;;;;;37.13;18.02;;;1.40;54.00;;;;;;5042900;28;20060;-45
2022/12/13 08:13:28;;;;;;;41.72;17.88;;;1.40;54.00;;;;;;5044797;28;20049;-46
2022/12/13 08:15:59;;;;;;;36.83;17.17;;;1.40;54.10;;;;;;5045426;28;20071;-45
2022/12/13 08:18:26;;;;;;;143.68;49.70;;;1.40;54.10;;;;;;5044125;28;20057;-45
2022/12/13 08:20:58;;;;;;;72.47;28.88;;;1.40;54.10;;;;;;5040538;28;20049;-44
2022/12/13 08:23:25;;;;;;;44.65;19.42;;;1.40;54.10;;;;;;5043420;28;20056;-42
2022/12/13 08:25:53;;;;;;;45.70;19.90;;;1.40;54.10;;;;;;5045095;28;20424;-46
2022/12/13 08:28:22;;;;;;;41.65;18.08;;;1.40;54.10;;;;;;5045407;28;20053;-46
2022/12/13 08:30:50;;;;;;;41.00;19.27;;;1.40;54.00;;;;;;5041720;28;20057;-45
2022/12/13 08:33:17;;;;;;;44.35;19.70;;;1.40;54.10;;;;;;5043301;28;20049;-48
2022/12/13 08:35:45;;;;;;;39.22;18.40;;;1.40;54.00;;;;;;5040949;28;20065;-47
2022/12/13 08:38:12;;;;;;;39.15;17.23;;;1.40;54.00;;;;;;5044940;28;20500;-44
2022/12/13 08:40:40;;;;;;;36.25;17.67;;;1.40;54.00;;;;;;5040890;28;20056;-47
2022/12/13 08:43:07;;;;;;;44.30;18.73;;;1.40;54.00;;;;;;5044520;28;20056;-43
2022/12/13 08:45:36;;;;;;;37.47;18.48;;;1.40;54.00;;;;;;5044418;28;20063;-44
2022/12/13 08:48:04;;;;;;;38.60;18.00;;;1.40;54.00;;;;;;5045123;28;20056;-45
2022/12/13 08:50:31;;;;;;;39.22;18.23;;;1.40;54.00;;;;;;5041094;28;20053;-48
2022/12/13 08:52:58;;;;;;;37.53;17.83;;;1.40;54.00;;;;;;5043791;28;20060;-44
2022/12/13 08:55:27;;;;;;;41.67;18.33;;;1.40;54.10;;;;;;5044713;28;20404;-47
2022/12/13 08:57:54;;;;;;;41.90;18.55;;;1.40;54.60;;;;;;5042201;28;20080;-42
2022/12/13 09:00:21;;;;;;;43.05;18.58;;;1.40;54.10;;;;;;5042908;28;20052;-45
2022/12/13 09:02:50;;;;;;;37.17;17.75;;;1.40;54.20;;;;;;5043625;28;20053;-46
2022/12/13 09:05:17;;;;;;;40.78;18.55;;;1.40;54.30;;;;;;5043281;28;20053;-44
2022/12/13 09:07:45;;;;;;;37.92;17.38;;;1.40;54.30;;;;;;5042582;28;20052;-46
2022/12/13 09:10:12;;;;;;;36.80;17.63;;;1.40;54.30;;;;;;5023269;28;20072;-47
2022/12/13 09:12:42;;;;;;;39.88;18.73;;;1.40;54.40;;;;;;5022363;28;20060;-46
2022/12/13 09:15:10;;;;;;;37.30;17.30;;;1.40;54.40;;;;;;5023989;28;20057;-43
2022/12/13 09:17:38;;;;;;;36.22;18.20;;;1.40;54.40;;;;;;5022778;28;20060;-44
2022/12/13 09:20:10;;;;;;;40.50;19.42;;;1.40;54.30;;;;;;5018392;28;20053;-45
2022/12/13 09:22:38;;;;;;;40.35;18.40;;;1.50;54.40;;;;;;5020908;28;20053;-42
2022/12/13 09:25:06;;;;;;;40.58;18.35;;;1.40;54.40;;;;;;5021745;28;20065;-44
2022/12/13 09:27:34;;;;;;;37.80;17.55;;;1.50;54.50;;;;;;5023339;28;20057;-46
2022/12/13 09:30:01;;;;;;;39.28;17.42;;;1.50;54.50;;;;;;5023164;28;21769;-46
2022/12/13 09:32:28;;;;;;;41.97;19.63;;;1.50;54.40;;;;;;5020713;28;20516;-48
2022/12/13 09:34:56;;;;;;;43.13;18.88;;;1.50;54.50;;;;;;5022144;28;20440;-46
2022/12/13 09:37:24;;;;;;;37.17;18.13;;;1.60;54.50;;;;;;5018703;28;20417;-44
2022/12/13 09:39:51;;;;;;;36.45;17.33;;;1.60;54.40;;;;;;5023476;28;20084;-44
2022/12/13 09:42:22;;;;;;;39.00;18.50;;;1.60;54.40;;;;;;5021379;28;20049;-49
2022/12/13 09:44:53;;;;;;;109.38;35.95;;;1.60;54.40;;;;;;5017727;28;20046;-49
2022/12/13 09:47:29;;;;;;;52.42;22.80;;;1.60;54.40;;;;;;5019238;28;20519;-47
2022/12/13 09:49:56;;;;;;;41.95;19.70;;;1.70;54.40;;;;;;5022757;28;20064;-43
2022/12/13 09:52:26;;;;;;;40.88;19.38;;;1.70;54.40;;;;;;5015126;28;20054;-47
2022/12/13 09:54:55;;;;;;;38.60;17.67;;;1.70;54.40;;;;;;5023113;28;20069;-45
2022/12/13 09:57:27;;;;;;;38.50;17.75;;;1.80;54.40;;;;;;5021049;28;20065;-49
2022/12/13 09:59:55;;;;;;;41.90;19.58;;;1.80;54.40;;;;;;5022871;28;20057;-47
2022/12/13 10:02:26;;;;;;;42.92;19.77;;;1.80;54.30;;;;;;5021852;28;20049;-48
2022/12/13 10:04:54;;;;;;;42.83;19.25;;;1.80;54.20;;;;;;5021840;28;20053;-46
2022/12/13 10:07:24;;;;;;;44.95;20.30;;;1.80;54.20;;;;;;5015352;28;20072;-42
2022/12/13 10:10:01;;;;;;;40.45;18.42;;;1.80;54.20;;;;;;5034858;28;20548;-42
2022/12/13 10:12:29;;;;;;;36.42;17.05;;;1.90;54.30;;;;;;5043023;28;20057;-44
2022/12/13 10:15:00;;;;;;;37.85;17.92;;;1.90;54.30;;;;;;5042511;28;20507;-44
2022/12/13 10:17:34;;;;;;;37.13;18.25;;;1.90;54.30;;;;;;5042771;28;20064;-48
2022/12/13 10:20:02;;;;;;;36.20;18.02;;;2.00;54.30;;;;;;5040991;28;20060;-44
2022/12/13 10:22:30;;;;;;;39.45;18.30;;;2.00;54.30;;;;;;5039536;28;20071;-49
2022/12/13 10:25:02;;;;;;;48.53;19.50;;;2.00;54.30;;;;;;5040760;28;20400;-44
2022/12/13 10:27:35;;;;;;;43.92;18.88;;;2.00;54.30;;;;;;5042988;28;20057;-47
2022/12/13 10:30:06;;;;;;;39.67;18.88;;;2.10;54.30;;;;;;5041208;28;20519;-49
2022/12/13 10:32:43;;;;;;;38.08;17.88;;;2.10;54.30;;;;;;5039311;28;20512;-46
2022/12/13 10:35:23;;;;;;;50.63;21.67;;;2.10;54.20;;;;;;5036338;28;20114;-48
2022/12/13 10:37:50;;;;;;;34.58;16.00;;;2.20;54.20;;;;;;5038973;28;20064;-46
2022/12/13 10:40:27;;;;;;;34.22;16.98;;;2.20;54.10;;;;;;5038834;28;20045;-49
2022/12/13 10:43:13;;;;;;;32.08;15.48;;;2.20;54.00;;;;;;5041591;28;20508;-44
2022/12/13 10:45:41;;;;;;;30.27;15.63;;;2.20;54.00;;;;;;5040317;28;20052;-45
2022/12/13 10:48:20;;;;;;;32.05;15.32;;;2.30;54.00;;;;;;5047392;28;20052;-48
2022/12/13 10:50:59;;;;;;;31.95;15.50;;;2.30;53.90;;;;;;5037813;28;20650;-48
2022/12/13 10:53:31;;;;;;;33.67;14.73;;;2.30;53.90;;;;;;5042926;28;20489;-44
2022/12/13 10:56:00;;;;;;;34.38;14.90;;;2.30;53.90;;;;;;5043674;28;20081;-44
2022/12/13 10:58:36;;;;;;;40.63;17.15;;;2.40;53.80;;;;;;5046105;28;20049;-46
2022/12/13 11:01:20;;;;;;;31.30;15.00;;;2.40;53.70;;;;;;5047152;28;20059;-45
2022/12/13 11:03:58;;;;;;;29.33;14.68;;;2.40;53.60;;;;;;5047371;28;20063;-47
2022/12/13 11:06:26;;;;;;;33.47;15.75;;;2.50;53.70;;;;;;5044659;28;20056;-44
2022/12/13 11:08:53;;;;;;;28.02;14.60;;;2.50;53.70;;;;;;5046477;28;20082;-42
2022/12/13 11:11:29;;;;;;;32.78;14.77;;;2.50;53.70;;;;;;5043726;28;20049;-46
2022/12/13 11:14:00;;;;;;;28.70;14.13;;;2.60;53.70;;;;;;5043927;28;20056;-43
2022/12/13 11:16:32;;;;;;;28.35;14.07;;;2.60;54.10;;;;;;5042688;28;20052;-45
2022/12/13 11:19:02;;;;;;;30.08;13.80;;;2.60;53.60;;;;;;5042381;28;20564;-46
2022/12/13 11:21:33;;;;;;;29.52;13.55;;;2.60;53.40;;;;;;5040991;28;20053;-48
2022/12/13 11:24:03;;;;;;;40.38;19.20;;;2.70;53.40;;;;;;5040836;28;20580;-45
2022/12/13 11:26:35;;;;;;;33.13;15.23;;;2.70;53.20;;;;;;5040541;28;20511;-42
2022/12/13 11:29:18;;;;;;;31.92;16.55;;;2.70;53.10;;;;;;5227833;22;20041;-47
2022/12/13 11:31:55;;;;;;;29.88;14.10;;;2.70;53.00;;;;;;5036667;28;20049;-43
2022/12/13 11:34:33;;;;;;;31.88;15.27;;;2.80;53.10;;;;;;5034582;28;20049;-45
2022/12/13 11:37:16;;;;;;;30.30;14.50;;;2.80;53.00;;;;;;5038254;28;20053;-47
2022/12/13 11:39:49;;;;;;;32.70;14.40;;;2.80;52.80;;;;;;5037312;28;20061;-48
2022/12/13 11:42:26;;;;;;;30.65;13.50;;;2.80;52.80;;;;;;5037217;28;20049;-46
2022/12/13 11:45:02;;;;;;;30.60;15.10;;;2.80;52.70;;;;;;5035369;28;20056;-46
2022/12/13 11:47:36;;;;;;;26.83;13.98;;;2.90;52.60;;;;;;5035861;28;20429;-46
2022/12/13 11:50:12;;;;;;;;;;;2.90;52.50;;;;;;5037963;28;20052;-49
2022/12/13 11:52:44;;;;;;;28.85;12.95;;;2.90;52.40;;;;;;5035330;28;19935;-47
2022/12/13 11:55:17;;;;;;;26.95;12.85;;;2.90;52.40;;;;;;5035729;28;20069;-42
2022/12/13 11:57:51;;;;;;;27.42;13.60;;;2.90;52.20;;;;;;5036234;28;20048;-45
2022/12/13 12:00:30;;;;;;;29.38;12.80;;;2.90;52.10;;;;;;5033678;28;20064;-47
2022/12/13 12:03:04;;;;;;;30.45;12.98;;;2.90;52.10;;;;;;5034278;28;20060;-46
2022/12/13 12:05:35;;;;;;;28.75;13.73;;;3.00;52.70;;;;;;5036194;28;20476;-48
2022/12/13 12:08:09;;;;;;;32.17;13.73;;;2.90;52.30;;;;;;5033150;28;20052;-45
2022/12/13 12:10:40;;;;;;;28.52;13.20;;;2.90;52.20;;;;;;5037798;28;20064;-47
2022/12/13 12:13:17;;;;;;;27.33;13.25;;;3.00;52.20;;;;;;5036124;28;20056;-44
2022/12/13 12:15:49;;;;;;;26.80;12.55;;;3.00;52.10;;;;;;5037725;28;20060;-45
2022/12/13 12:18:17;;;;;;;26.58;12.82;;;3.00;51.90;;;;;;5035020;28;20053;-45
2022/12/13 12:21:00;;;;;;;26.75;12.82;;;3.00;51.90;;;;;;5036624;28;20500;-47
2022/12/13 12:23:38;;;;;;;28.98;13.50;;;3.00;51.90;;;;;;5039188;28;20416;-46
2022/12/13 12:26:10;;;;;;;29.48;14.23;;;3.10;52.00;;;;;;5229055;22;20058;-47
2022/12/13 12:29:02;;;;;;;27.27;14.15;;;3.10;52.00;;;;;;5001354;28;20786;-46
2022/12/13 12:31:35;;;;;;;27.55;12.48;;;3.10;51.90;;;;;;5001248;28;20137;-47
2022/12/13 12:34:14;;;;;;;27.60;13.30;;;3.10;51.90;;;;;;5003203;28;20049;-46
2022/12/13 12:36:57;;;;;;;26.92;13.00;;;3.10;51.60;;;;;;5061104;22;20511;-45
2022/12/13 12:39:42;;;;;;;26.92;12.23;;;3.20;51.50;;;;;;5022482;28;20053;-46
2022/12/13 12:42:33;;;;;;;26.77;12.45;;;3.20;51.40;;;;;;5023239;28;20412;-44
2022/12/13 12:45:21;;;;;;;28.58;12.88;;;3.20;51.40;;;;;;5021617;28;20050;-45
2022/12/13 12:47:58;;;;;;;31.90;13.82;;;3.20;51.40;;;;;;5021349;28;20057;-44
2022/12/13 12:50:39;;;;;;;34.95;16.52;;;3.20;51.40;;;;;;5017238;28;20518;-48
2022/12/13 12:53:26;;;;;;;35.95;15.63;;;3.20;51.30;;;;;;5018616;28;20065;-46
2022/12/13 12:56:06;;;;;;;30.90;13.82;;;3.20;51.00;;;;;;5015423;28;20049;-49
2022/12/13 12:58:42;;;;;;;25.23;11.68;;;3.20;51.00;;;;;;5015404;28;20049;-47
2022/12/13 13:01:21;;;;;;;29.10;12.38;;;3.20;51.00;;;;;;5020349;28;20500;-44